Time;durP1;ratioP1;P1;durP2;ratioP2;P2;SDS_P1;SDS_P2;PMS_P1;PMS_P2;Temp;Humidity;BMP_temperature;BMP_pressure;BME280_temperature;BME280_humidity;BME280_pressure;Samples;Min_cycle;Max_cycle;Signal;HPM_P1;HPM_P2
2023/03/18 00:04:54;;;;;;;12.90;8.20;;;;;;;9.35;100.00;100610.53;10303862;28;20051;-79
2023/03/18 00:09:55;;;;;;;11.60;7.50;;;;;;;9.28;100.00;100598.88;10349129;28;20045;-79
2023/03/18 00:14:55;;;;;;;13.60;7.32;;;;;;;9.37;100.00;100608.38;10334837;28;20042;-79
2023/03/18 00:19:56;;;;;;;14.35;8.35;;;;;;;9.37;100.00;100622.13;10350425;28;20149;-79
2023/03/18 00:24:56;;;;;;;10.60;5.78;;;;;;;9.43;100.00;100621.09;10406017;28;20033;-80
2023/03/18 00:29:57;;;;;;;9.88;5.55;;;;;;;9.47;100.00;100600.28;10373401;28;20037;-78
2023/03/18 00:34:57;;;;;;;7.53;4.53;;;;;;;9.63;100.00;100601.31;10348539;28;20034;-78
2023/03/18 00:40:03;;;;;;;10.38;4.47;;;;;;;9.90;100.00;100626.13;10365663;28;20038;-80
2023/03/18 00:45:06;;;;;;;8.60;4.93;;;;;;;9.98;100.00;100616.59;10334208;28;20048;-78
2023/03/18 00:50:07;;;;;;;9.05;4.47;;;;;;;9.98;100.00;100615.75;10366213;28;20033;-80
2023/03/18 00:55:07;;;;;;;8.82;4.45;;;;;;;10.17;100.00;100628.09;10348597;28;20034;-79
2023/03/18 01:00:09;;;;;;;9.25;4.75;;;;;;;10.17;100.00;100617.09;10348546;28;20108;-79
2023/03/18 01:05:11;;;;;;;12.13;5.25;;;;;;;10.33;100.00;100620.03;10333791;28;20053;-79
2023/03/18 01:10:13;;;;;;;11.45;5.05;;;;;;;9.96;100.00;100554.69;10366164;28;20061;-78
2023/03/18 01:15:15;;;;;;;10.48;5.10;;;;;;;9.89;100.00;100555.72;10324334;28;20030;-79
2023/03/18 01:20:18;;;;;;;10.77;5.15;;;;;;;10.14;100.00;100617.59;10307677;28;20043;-79
2023/03/18 01:25:19;;;;;;;8.50;5.68;;;;;;;10.00;100.00;100610.84;10324727;28;20049;-78
2023/03/18 01:30:19;;;;;;;9.32;5.75;;;;;;;9.96;100.00;100623.44;10325228;28;20038;-79
2023/03/18 01:35:20;;;;;;;10.95;6.93;;;;;;;9.76;100.00;100605.59;10329947;28;20910;-78
2023/03/18 01:40:21;;;;;;;14.10;6.43;;;;;;;9.46;100.00;100617.84;10317307;28;20104;-78
2023/03/18 01:45:24;;;;;;;9.88;5.80;;;;;;;9.14;100.00;100619.56;10348890;28;20299;-77
2023/03/18 01:50:35;;;;;;;10.43;7.00;;;;;;;8.96;100.00;100626.97;10330586;28;20449;-78
2023/03/18 01:55:35;;;;;;;14.45;7.68;;;;;;;8.87;100.00;100651.28;10378505;28;20046;-78
2023/03/18 02:00:38;;;;;;;12.75;7.80;;;;;;;8.70;100.00;100644.91;10362716;28;20049;-77
2023/03/18 02:05:39;;;;;;;10.98;7.65;;;;;;;8.40;100.00;100626.81;10320671;28;20053;-78
2023/03/18 02:10:39;;;;;;;11.30;7.68;;;;;;;8.31;100.00;100644.75;10373186;28;20049;-77
2023/03/18 02:15:46;;;;;;;22.52;10.07;;;;;;;8.17;100.00;100638.72;10354488;28;20042;-78
2023/03/18 02:20:55;;;;;;;11.98;8.48;;;;;;;8.14;100.00;100655.63;10363527;28;20033;-78
2023/03/18 02:26:21;;;;;;;14.25;9.43;;;;;;;8.05;100.00;100657.94;10396844;28;20041;-78
2023/03/18 02:31:22;;;;;;;20.55;10.88;;;;;;;7.99;100.00;100666.31;10380663;28;20611;-78
2023/03/18 02:36:24;;;;;;;19.23;12.68;;;;;;;7.92;100.00;100669.19;10395810;28;20045;-77
2023/03/18 02:41:27;;;;;;;21.45;13.57;;;;;;;7.79;100.00;100659.31;10392577;28;20071;-79
2023/03/18 02:46:40;;;;;;;22.00;14.18;;;;;;;7.88;100.00;100671.56;10411419;28;20044;-79
2023/03/18 02:51:40;;;;;;;25.25;15.65;;;;;;;7.92;100.00;100673.81;10394415;28;20075;-78
2023/03/18 02:56:41;;;;;;;28.38;18.85;;;;;;;8.00;100.00;100671.56;10410430;28;20045;-79
2023/03/18 03:01:42;;;;;;;26.30;17.52;;;;;;;8.00;100.00;100659.72;10394870;28;20060;-78
2023/03/18 03:06:43;;;;;;;27.08;18.13;;;;;;;8.14;100.00;100688.53;10359822;28;20413;-78
2023/03/18 03:11:44;;;;;;;27.83;17.50;;;;;;;8.21;100.00;100683.75;10388908;28;20045;-78
2023/03/18 03:16:46;;;;;;;31.95;19.58;;;;;;;8.29;100.00;100686.13;10368884;28;20115;-78
2023/03/18 03:21:46;;;;;;;30.63;19.65;;;;;;;8.44;100.00;100682.03;10369142;28;20092;-78
2023/03/18 03:26:47;;;;;;;30.15;19.70;;;;;;;8.52;100.00;100692.63;10352590;28;20587;-78
2023/03/18 03:31:47;;;;;;;29.77;18.92;;;;;;;8.64;100.00;100704.38;10340486;28;20030;-78
2023/03/18 03:36:48;;;;;;;30.38;18.58;;;;;;;8.64;100.00;100709.88;10351550;28;20046;-77
2023/03/18 03:41:49;;;;;;;37.38;20.38;;;;;;;8.59;100.00;100704.28;10367979;28;20050;-70
2023/03/18 03:46:49;;;;;;;31.80;20.17;;;;;;;8.55;100.00;100719.56;10384018;28;22022;-77
2023/03/18 03:51:50;;;;;;;31.52;21.48;;;;;;;8.52;100.00;100727.47;10392328;28;20091;-78
2023/03/18 03:56:51;;;;;;;30.30;20.50;;;;;;;8.60;100.00;100733.41;10393060;28;20029;-78
2023/03/18 04:01:51;;;;;;;36.05;21.90;;;;;;;8.56;100.00;100729.47;10408209;28;20037;-78
2023/03/18 04:06:51;;;;;;;35.00;22.88;;;;;;;8.50;100.00;100727.72;10376340;28;20475;-76
2023/03/18 04:11:52;;;;;;;35.97;23.55;;;;;;;8.38;100.00;100724.97;10407083;28;20041;-78
2023/03/18 04:16:56;;;;;;;35.05;22.90;;;;;;;7.33;100.00;100606.25;10404534;28;20045;-78
2023/03/18 04:21:57;;;;;;;32.97;21.95;;;;;;;8.05;100.00;100747.59;10375861;28;20052;-78
2023/03/18 04:26:57;;;;;;;37.78;23.20;;;;;;;7.79;100.00;100752.50;10363065;28;20041;-78
2023/03/18 04:31:58;;;;;;;36.95;22.20;;;;;;;7.51;100.00;100746.91;10350608;28;20445;-77
2023/03/18 04:36:58;;;;;;;40.10;24.48;;;;;;;7.31;100.00;100767.22;10337539;28;20046;-77
2023/03/18 04:41:59;;;;;;;41.40;25.50;;;;;;;7.12;100.00;100768.38;10406010;28;20567;-78
2023/03/18 04:47:00;;;;;;;41.13;25.55;;;;;;;7.00;100.00;100774.63;10374495;28;20041;-77
2023/03/18 04:52:01;;;;;;;44.83;27.02;;;;;;;6.87;100.00;100766.63;10407468;28;20052;-77
2023/03/18 04:57:02;;;;;;;47.63;29.67;;;;;;;6.97;100.00;100775.13;10374521;28;20034;-77
2023/03/18 05:02:03;;;;;;;47.20;29.60;;;;;;;7.20;100.00;100790.78;10383489;28;20042;-77
2023/03/18 05:07:04;;;;;;;46.40;29.60;;;;;;;6.95;100.00;100736.19;10366787;28;20030;-78
2023/03/18 05:12:05;;;;;;;52.53;31.17;;;;;;;7.26;100.00;100783.53;10331443;28;20556;-78
2023/03/18 05:17:05;;;;;;;49.67;29.48;;;;;;;7.44;100.00;100801.78;10364220;28;20038;-78
2023/03/18 05:22:06;;;;;;;43.85;29.13;;;;;;;7.47;100.00;100804.88;10365809;28;20042;-77
2023/03/18 05:27:06;;;;;;;49.42;29.92;;;;;;;7.57;100.00;100803.47;10349751;28;20504;-76
2023/03/18 05:32:07;;;;;;;44.97;31.33;;;;;;;7.71;100.00;100802.19;10372161;28;20057;-78
2023/03/18 05:37:09;;;;;;;51.40;31.50;;;;;;;7.77;100.00;100800.38;10354093;28;20073;-79
2023/03/18 05:42:10;;;;;;;51.28;31.02;;;;;;;7.91;100.00;100809.22;10354579;28;20046;-78
2023/03/18 05:47:11;;;;;;;49.88;31.65;;;;;;;7.93;100.00;100796.94;10402644;28;20501;-74
2023/03/18 05:52:11;;;;;;;54.22;32.63;;;;;;;8.12;100.00;100811.34;10396014;28;20060;-78
2023/03/18 05:57:12;;;;;;;49.10;31.42;;;;;;;8.21;100.00;100815.41;10352569;28;20118;-78
2023/03/18 06:02:12;;;;;;;53.90;30.85;;;;;;;8.25;100.00;100826.72;10347812;28;20038;-78
2023/03/18 06:07:14;;;;;;;47.67;31.23;;;;;;;8.37;100.00;100844.03;10354462;28;20381;-78
2023/03/18 06:12:14;;;;;;;45.00;27.08;;;;;;;8.32;100.00;100832.91;10354914;28;20038;-78
2023/03/18 06:17:15;;;;;;;43.03;26.70;;;;;;;8.39;100.00;100844.59;10367993;28;20042;-78
2023/03/18 06:22:15;;;;;;;44.22;27.08;;;;;;;8.35;100.00;100843.41;10370459;28;20089;-78
2023/03/18 06:27:16;;;;;;;46.42;28.98;;;;;;;8.35;100.00;100861.75;10371760;28;20069;-78
2023/03/18 06:32:16;;;;;;;41.53;26.67;;;;;;;8.37;100.00;100848.66;10370344;28;20056;-79
2023/03/18 06:37:17;;;;;;;47.72;28.60;;;;;;;8.51;100.00;100855.56;10398419;28;20048;-79
2023/03/18 06:42:17;;;;;;;45.00;27.75;;;;;;;8.57;100.00;100851.88;10410888;28;20088;-77
2023/03/18 06:47:18;;;;;;;44.33;28.20;;;;;;;8.67;100.00;100846.59;10409215;28;20053;-79
2023/03/18 06:52:19;;;;;;;35.97;24.60;;;;;;;8.91;100.00;100862.16;10409904;28;20108;-79
2023/03/18 06:57:19;;;;;;;38.83;25.40;;;;;;;9.05;100.00;100864.41;10392355;28;20117;-79
2023/03/18 07:02:22;;;;;;;43.60;26.58;;;;;;;9.21;100.00;100867.44;10410394;28;20045;-78
2023/03/18 07:07:23;;;;;;;36.35;25.35;;;;;;;9.35;100.00;100873.47;10403395;28;20038;-78
2023/03/18 07:12:25;;;;;;;40.72;26.25;;;;;;;9.55;100.00;100884.00;10368796;28;20057;-73
2023/03/18 07:17:26;;;;;;;46.47;26.10;;;;;;;9.03;100.00;100811.63;10370058;28;20517;-79
2023/03/18 07:22:26;;;;;;;37.47;24.23;;;;;;;9.61;100.00;100872.00;10365743;28;20058;-78
2023/03/18 07:27:27;;;;;;;34.22;24.38;;;;;;;9.58;100.00;100898.09;10368651;28;20033;-78
2023/03/18 07:32:29;;;;;;;38.00;25.80;;;;;;;9.43;100.00;100890.41;10367117;28;20038;-77
2023/03/18 07:37:30;;;;;;;41.08;26.55;;;;;;;9.53;100.00;100924.63;10373843;28;20124;-78
2023/03/18 07:42:31;;;;;;;37.58;24.67;;;;;;;9.58;100.00;100908.25;10392691;28;20044;-78
2023/03/18 07:47:32;;;;;;;35.17;24.15;;;;;;;9.85;100.00;100923.03;10390245;28;20389;-77
2023/03/18 07:52:32;;;;;;;33.35;23.30;;;;;;;10.01;100.00;100920.56;10375864;28;20069;-78
2023/03/18 07:57:33;;;;;;;42.67;24.17;;;;;;;10.08;100.00;100926.72;10408654;28;20397;-78
2023/03/18 08:02:34;;;;;;;34.35;23.13;;;;;;;10.31;100.00;100939.47;10408238;28;20490;-78
2023/03/18 08:07:35;;;;;;;37.10;24.10;;;;;;;10.41;100.00;100925.06;10379620;28;20081;-78
2023/03/18 08:12:36;;;;;;;33.45;22.02;;;;;;;10.57;100.00;100935.22;10368125;28;20042;-78
2023/03/18 08:17:37;;;;;;;34.03;21.17;;;;;;;10.63;100.00;100955.41;10334355;28;20045;-78
2023/03/18 08:22:38;;;;;;;27.55;18.65;;;;;;;10.57;100.00;100961.91;10390257;28;20053;-78
2023/03/18 08:27:38;;;;;;;25.55;17.27;;;;;;;10.47;100.00;100957.91;10373488;28;20138;-78
2023/03/18 08:32:39;;;;;;;28.55;16.70;;;;;;;10.53;100.00;100953.31;10361464;28;20045;-69
2023/03/18 08:37:39;;;;;;;28.90;17.08;;;;;;;10.60;100.00;100945.72;10328984;28;20068;-78
2023/03/18 08:42:39;;;;;;;24.25;16.27;;;;;;;10.67;100.00;100932.59;10364746;28;20061;-78
2023/03/18 08:47:40;;;;;;;26.95;17.13;;;;;;;10.92;100.00;100950.56;10331536;28;20115;-78
2023/03/18 08:52:41;;;;;;;25.30;15.60;;;;;;;11.01;100.00;100946.28;10366520;28;20037;-78
2023/03/18 08:57:41;;;;;;;25.35;16.52;;;;;;;11.27;100.00;100938.34;10367210;28;20042;-78
2023/03/18 09:02:42;;;;;;;25.40;16.83;;;;;;;11.44;100.00;100943.78;10350741;28;20041;-78
2023/03/18 09:07:42;;;;;;;25.00;17.02;;;;;;;11.66;100.00;100933.53;10389245;28;20033;-78
2023/03/18 09:12:43;;;;;;;20.98;16.00;;;;;;;11.84;100.00;100948.88;10388948;28;20049;-78
2023/03/18 09:17:44;;;;;;;27.20;18.33;;;;;;;11.89;100.00;100946.22;10388856;28;20098;-79
2023/03/18 09:22:44;;;;;;;25.63;17.58;;;;;;;11.76;100.00;100946.63;10353598;28;20066;-71
2023/03/18 09:27:45;;;;;;;27.65;17.17;;;;;;;11.88;100.00;100944.53;10349971;28;20062;-78
2023/03/18 09:32:45;;;;;;;25.50;18.60;;;;;;;12.28;100.00;100937.72;10364986;28;20041;-79
2023/03/18 09:37:46;;;;;;;27.23;17.08;;;;;;;12.65;100.00;100941.53;10363402;28;20087;-80
2023/03/18 09:43:08;;;;;;;25.00;16.75;;;;;;;12.94;100.00;100947.53;10365998;28;20042;-80
2023/03/18 09:48:17;;;;;;;33.58;18.45;;;;;;;13.20;100.00;100947.63;10384686;28;20038;-79
2023/03/18 09:53:45;;;;;;;26.10;16.77;;;;;;;13.26;100.00;100952.09;10388406;28;20060;-79
2023/03/18 09:59:21;;;;;;;29.05;18.00;;;;;;;13.13;100.00;100959.78;10404045;28;20048;-80
2023/03/18 10:04:35;;;;;;;27.30;18.38;;;;;;;13.40;100.00;100956.06;10374298;28;20029;-78
2023/03/18 10:09:43;;;;;;;24.02;18.65;;;;;;;13.93;100.00;100978.88;10397435;28;20701;-79
2023/03/18 10:14:50;;;;;;;25.02;17.58;;;;;;;13.92;100.00;100923.78;10406317;28;20034;-77
2023/03/18 10:19:54;;;;;;;28.17;19.77;;;;;;;14.39;100.00;100952.31;10367643;28;20076;-78
2023/03/18 10:25:13;;;;;;;27.95;20.00;;;;;;;14.09;100.00;100981.66;10379268;28;20041;-77
2023/03/18 10:30:35;;;;;;;25.00;19.52;;;;;;;13.80;100.00;100984.09;10372006;28;20029;-78
2023/03/18 10:35:44;;;;;;;30.02;20.40;;;;;;;13.87;100.00;100993.81;10409888;28;20561;-78
2023/03/18 10:40:45;;;;;;;31.20;19.42;;;;;;;14.26;100.00;100992.47;10380021;28;20076;-79
2023/03/18 10:45:47;;;;;;;30.63;20.00;;;;;;;14.30;100.00;100988.88;10378328;28;20160;-78
2023/03/18 10:50:47;;;;;;;31.33;19.88;;;;;;;14.05;100.00;101000.75;10373201;28;20472;-82
2023/03/18 10:56:09;;;;;;;27.88;20.02;;;;;;;13.97;100.00;101011.53;10339801;28;20057;-79
2023/03/18 11:01:11;;;;;;;26.77;19.88;;;;;;;14.29;100.00;101000.22;10367139;28;20042;-80
2023/03/18 11:06:33;;;;;;;35.42;22.77;;;;;;;14.40;100.00;100998.28;10353706;28;20439;-82
2023/03/18 11:11:34;;;;;;;35.03;21.65;;;;;;;14.55;100.00;100998.25;10372918;28;20140;-82
2023/03/18 11:16:38;;;;;;;25.58;20.17;;;;;;;14.59;100.00;100996.63;10370234;28;20481;-82
2023/03/18 11:21:38;;;;;;;25.00;17.73;;;;;;;14.96;100.00;100989.09;10334001;28;20061;-81
2023/03/18 11:27:17;;;;;;;23.77;16.20;;;;;;;14.98;100.00;100981.34;10336960;28;20042;-81
2023/03/18 11:32:28;;;;;;;26.52;15.70;;;;;;;15.34;100.00;100969.00;10358251;28;20064;-81
2023/03/18 11:37:35;;;;;;;19.10;12.68;;;;;;;15.72;100.00;100988.00;10310804;28;20037;-84
2023/03/18 11:42:37;;;;;;;17.77;11.23;;;;;;;15.26;100.00;100977.09;10351547;28;20045;-80
2023/03/18 11:47:39;;;;;;;15.27;10.82;;;;;;;15.77;100.00;100979.63;10357035;28;20052;-83
2023/03/18 11:52:50;;;;;;;15.98;11.07;;;;;;;16.10;100.00;100968.88;10391243;28;20052;-82
2023/03/18 11:58:23;;;;;;;18.20;10.50;;;;;;;16.57;100.00;100977.66;10368016;28;20513;-82
2023/03/18 12:03:58;;;;;;;15.75;10.27;;;;;;;16.57;100.00;100978.47;10408253;28;20109;-82
2023/03/18 12:09:20;;;;;;;17.98;10.52;;;;;;;16.73;100.00;100968.88;10365497;28;20056;-82
2023/03/18 12:14:32;;;;;;;10.57;7.53;;;;;;;16.75;100.00;100977.75;10329124;28;20038;-83
2023/03/18 12:19:44;;;;;;;12.52;9.25;;;;;;;17.83;100.00;100972.88;10356236;28;20060;-83
2023/03/18 12:25:05;;;;;;;11.98;9.30;;;;;;;18.34;100.00;100958.97;10405401;28;20045;-82
2023/03/18 12:30:25;;;;;;;14.57;9.48;;;;;;;18.68;100.00;100968.97;10407263;28;20049;-81
2023/03/18 12:35:25;;;;;;;13.73;9.13;;;;;;;18.48;100.00;100955.38;10407825;28;20041;-82
2023/03/18 12:40:54;;;;;;;9.45;8.02;;;;;;;18.15;100.00;100953.44;10390515;28;20417;-82
2023/03/18 12:45:58;;;;;;;10.55;7.25;;;;;;;19.14;100.00;100948.59;10405751;28;20029;-80
2023/03/18 12:51:08;;;;;;;8.45;6.85;;;;;;;19.44;100.00;100918.38;10364322;28;20034;-82
2023/03/18 12:56:12;;;;;;;7.72;6.18;;;;;;;19.53;100.00;100918.44;10365823;28;20052;-83
2023/03/18 13:01:18;;;;;;;5.85;4.60;;;;;;;19.61;100.00;100939.22;10309525;28;20038;-82
2023/03/18 13:06:39;;;;;;;6.50;4.63;;;;;;;20.19;100.00;100927.25;10357454;28;20040;-82
2023/03/18 13:11:54;;;;;;;8.43;4.70;;;;;;;20.29;99.20;100929.78;10408379;28;20123;-81
2023/03/18 13:16:54;;;;;;;6.53;4.30;;;;;;;19.73;99.00;100936.75;10405422;28;20512;-82
2023/03/18 13:22:07;;;;;;;6.43;4.18;;;;;;;19.09;99.15;100937.53;10387906;28;20049;-81
2023/03/18 13:27:23;;;;;;;5.72;3.67;;;;;;;18.69;100.00;100923.22;10406382;28;20042;-82
2023/03/18 13:32:51;;;;;;;6.23;4.30;;;;;;;18.34;100.00;100941.44;10389918;28;20444;-80
2023/03/18 13:38:16;;;;;;;7.15;3.97;;;;;;;17.10;100.00;100939.56;10407153;28;20117;-81
2023/03/18 13:43:18;;;;;;;4.57;3.22;;;;;;;16.38;100.00;100933.09;10348526;28;20122;-81
2023/03/18 13:48:26;;;;;;;5.28;3.70;;;;;;;16.20;100.00;100946.56;10375517;28;20041;-81
2023/03/18 13:53:37;;;;;;;8.70;4.93;;;;;;;16.31;100.00;100950.94;10413917;28;20052;-81
2023/03/18 13:58:46;;;;;;;7.05;4.13;;;;;;;16.28;100.00;100931.22;10413249;28;20091;-82
2023/03/18 14:03:50;;;;;;;10.02;2.70;;;;;;;16.49;100.00;100959.66;10412693;28;20056;-83
2023/03/18 14:08:51;;;;;;;3.95;2.55;;;;;;;16.42;100.00;100951.66;10412867;28;20045;-82
2023/03/18 14:14:04;;;;;;;4.50;3.42;;;;;;;16.50;100.00;100950.22;10396209;28;20045;-81
2023/03/18 14:19:27;;;;;;;11.23;9.35;;;;;;;16.67;100.00;100939.47;10394216;28;20088;-78
2023/03/18 14:24:28;;;;;;;6.82;5.57;;;;;;;17.59;100.00;100928.34;10374404;28;20046;-82
2023/03/18 14:29:35;;;;;;;5.15;4.60;;;;;;;17.91;100.00;100934.03;10354407;28;20094;-82
2023/03/18 14:35:17;;;;;;;7.88;3.58;;;;;;;19.63;100.00;100914.59;10335363;28;20084;-82
2023/03/18 14:40:18;;;;;;;6.18;3.35;;;;;;;20.35;96.02;100897.75;10351275;28;20431;-81
2023/03/18 14:45:38;;;;;;;7.07;4.03;;;;;;;21.07;90.75;100894.97;10339887;28;20030;-82
2023/03/18 14:50:41;;;;;;;5.32;3.53;;;;;;;21.11;89.82;100901.56;10375436;28;20064;-82
2023/03/18 14:55:43;;;;;;;5.75;4.18;;;;;;;19.79;92.68;100904.75;10411648;28;20037;-83
2023/03/18 15:00:44;;;;;;;9.63;4.95;;;;;;;18.40;98.47;100898.41;10394189;28;20512;-82
2023/03/18 15:05:45;;;;;;;8.23;4.88;;;;;;;17.65;100.00;100905.72;10395383;28;20053;-83
2023/03/18 15:10:48;;;;;;;7.35;4.65;;;;;;;17.20;100.00;100912.75;10378105;28;20397;-79
2023/03/18 15:15:53;;;;;;;8.00;5.80;;;;;;;16.83;100.00;100919.88;10374137;28;20042;-84
2023/03/18 15:20:56;;;;;;;10.60;6.88;;;;;;;16.45;100.00;100891.88;10391157;28;20120;-82
2023/03/18 15:25:57;;;;;;;9.70;6.80;;;;;;;16.43;100.00;100927.47;10393446;28;20073;-83
2023/03/18 15:30:59;;;;;;;10.57;7.57;;;;;;;16.18;100.00;100912.69;10407763;28;20448;-84
2023/03/18 15:36:06;;;;;;;10.05;7.30;;;;;;;16.18;100.00;100920.19;10377706;28;20045;-83
2023/03/18 15:41:09;;;;;;;12.52;7.20;;;;;;;16.03;100.00;100929.50;10409831;28;20044;-85
2023/03/18 15:46:22;;;;;;;7.63;6.18;;;;;;;15.39;100.00;100859.97;10393523;28;20030;-83
2023/03/18 15:51:29;;;;;;;9.30;6.45;;;;;;;15.67;100.00;100936.09;10409217;28;20029;-79
2023/03/18 15:56:31;;;;;;;9.90;6.35;;;;;;;15.55;100.00;100941.16;10392888;28;20056;-84
2023/03/18 16:01:33;;;;;;;8.50;6.07;;;;;;;15.38;100.00;100930.44;10411181;28;20060;-83
2023/03/18 16:06:34;;;;;;;7.78;5.50;;;;;;;15.19;100.00;100929.41;10447630;28;20128;-83
2023/03/18 16:11:35;;;;;;;8.98;6.00;;;;;;;15.05;100.00;100932.81;10348917;28;20045;-83
2023/03/18 16:16:36;;;;;;;12.75;6.97;;;;;;;14.89;100.00;100934.78;10347380;28;20056;-83
2023/03/18 16:21:36;;;;;;;8.57;5.70;;;;;;;14.86;100.00;100945.59;10350426;28;20061;-82
2023/03/18 16:26:37;;;;;;;9.02;6.50;;;;;;;14.73;100.00;100947.84;10388381;28;20041;-81
2023/03/18 16:31:37;;;;;;;8.18;5.75;;;;;;;14.27;100.00;100905.53;10391413;28;20030;-82
2023/03/18 16:36:38;;;;;;;9.98;8.05;;;;;;;14.41;100.00;100937.06;10390563;28;20046;-82
2023/03/18 16:41:39;;;;;;;20.63;7.07;;;;;;;14.33;100.00;100960.63;10389580;28;20053;-83
2023/03/18 16:46:40;;;;;;;13.85;6.78;;;;;;;14.20;100.00;100955.66;10390784;28;20084;-81
2023/03/18 16:51:40;;;;;;;9.93;6.97;;;;;;;13.98;100.00;100963.38;10406019;28;20041;-82
2023/03/18 16:56:41;;;;;;;7.60;5.80;;;;;;;13.79;100.00;100983.28;10373850;28;20371;-81
2023/03/18 17:01:42;;;;;;;1.42;0.82;;;;;;;13.08;100.00;101003.13;10407129;28;20411;-81
2023/03/18 17:06:43;;;;;;;9.50;1.42;;;;;;;12.17;100.00;101065.66;10406260;28;20111;-76
2023/03/18 17:11:43;;;;;;;13.15;2.20;;;;;;;11.11;100.00;101103.47;10390038;28;20056;-75
2023/03/18 17:16:44;;;;;;;8.07;2.05;;;;;;;10.47;100.00;101087.28;10377418;28;20045;-74
2023/03/18 17:21:44;;;;;;;5.63;2.28;;;;;;;10.37;100.00;101089.03;10442958;28;20041;-75
2023/03/18 17:26:47;;;;;;;5.30;2.05;;;;;;;10.20;100.00;101084.28;10436104;28;20021;-75
2023/03/18 17:31:49;;;;;;;3.90;2.15;;;;;;;10.21;100.00;101069.47;10422185;28;20025;-75
2023/03/18 17:36:49;;;;;;;6.03;3.15;;;;;;;9.85;100.00;101002.78;10437803;28;20136;-74
2023/03/18 17:41:50;;;;;;;8.98;3.75;;;;;;;10.29;100.00;101060.84;10437767;28;20041;-74
2023/03/18 17:46:51;;;;;;;7.45;5.15;;;;;;;10.14;100.00;101033.00;10436831;28;20063;-78
2023/03/18 17:51:52;;;;;;;5.38;3.65;;;;;;;10.34;100.00;101051.00;10438314;28;20182;-80
2023/03/18 17:56:52;;;;;;;22.13;6.38;;;;;;;10.21;100.00;101028.19;10437921;28;20033;-79
2023/03/18 18:01:52;;;;;;;8.80;5.07;;;;;;;10.22;100.00;101037.28;10423129;28;20048;-79
2023/03/18 18:06:53;;;;;;;36.28;6.97;;;;;;;10.13;100.00;101017.59;10401189;28;20056;-82
2023/03/18 18:11:54;;;;;;;6.10;3.67;;;;;;;10.24;100.00;101046.13;10452720;28;20438;-81
2023/03/18 18:16:54;;;;;;;10.32;4.10;;;;;;;10.14;100.00;101035.75;10423538;28;20033;-81
2023/03/18 18:21:55;;;;;;;11.05;4.43;;;;;;;10.23;100.00;101050.78;10435775;28;20131;-80
2023/03/18 18:26:56;;;;;;;8.75;4.22;;;;;;;10.01;100.00;101030.56;10453753;28;20045;-81
2023/03/18 18:31:56;;;;;;;7.35;4.75;;;;;;;10.08;100.00;101025.72;10409074;28;20045;-79
2023/03/18 18:36:57;;;;;;;16.45;10.13;;;;;;;10.19;100.00;101059.75;10451790;28;20033;-80
2023/03/18 18:41:58;;;;;;;11.25;6.57;;;;;;;10.18;100.00;101071.88;10436515;28;20037;-81
2023/03/18 18:46:58;;;;;;;6.80;5.00;;;;;;;9.97;100.00;101045.91;10418756;28;20044;-80
2023/03/18 18:52:00;;;;;;;7.93;5.50;;;;;;;10.01;100.00;101052.56;10417739;28;20044;-80
2023/03/18 18:57:00;;;;;;;7.93;6.40;;;;;;;9.91;100.00;101061.47;10435276;28;20141;-80
2023/03/18 19:02:02;;;;;;;8.88;6.20;;;;;;;9.76;100.00;101040.00;10402264;28;20065;-80
2023/03/18 19:07:03;;;;;;;11.32;7.22;;;;;;;9.74;100.00;101061.41;10434638;28;20044;-81
2023/03/18 19:12:09;;;;;;;11.98;6.53;;;;;;;9.86;100.00;101078.69;10435012;28;20041;-81
2023/03/18 19:17:14;;;;;;;11.57;5.95;;;;;;;9.82;100.00;101060.19;10434230;28;20096;-81
2023/03/18 19:22:15;;;;;;;7.30;5.68;;;;;;;9.67;100.00;101064.31;10434180;28;20542;-82
2023/03/18 19:27:26;;;;;;;9.00;6.80;;;;;;;9.57;100.00;101069.59;10392554;28;20113;-83
2023/03/18 19:32:26;;;;;;;11.05;8.63;;;;;;;9.36;100.00;101051.81;10372848;28;20049;-83
2023/03/18 19:37:28;;;;;;;15.60;10.68;;;;;;;9.09;100.00;101041.38;10415514;28;20067;-81
2023/03/18 19:42:29;;;;;;;18.85;11.50;;;;;;;9.14;100.00;101070.03;10430441;28;20033;-82
2023/03/18 19:47:30;;;;;;;25.20;12.05;;;;;;;8.97;100.00;101065.25;10415878;28;20033;-83
2023/03/18 19:52:31;;;;;;;17.63;10.38;;;;;;;8.84;100.00;101073.72;10417070;28;20033;-83
2023/03/18 19:57:32;;;;;;;12.80;9.00;;;;;;;8.69;100.00;101057.72;10433303;28;20029;-83
2023/03/18 20:02:33;;;;;;;15.77;10.30;;;;;;;8.78;100.00;101078.22;10405206;28;20040;-84
2023/03/18 20:07:33;;;;;;;13.10;9.82;;;;;;;8.66;100.00;101059.03;10375432;28;20037;-84
2023/03/18 20:12:38;;;;;;;12.55;9.80;;;;;;;8.65;100.00;101062.00;10391069;28;20033;-83
2023/03/18 20:17:59;;;;;;;13.75;10.23;;;;;;;8.53;100.00;101059.22;10358448;28;20109;-82
2023/03/18 20:23:03;;;;;;;11.52;9.63;;;;;;;8.49;100.00;101079.97;10447175;28;20048;-82
2023/03/18 20:28:04;;;;;;;15.43;10.48;;;;;;;8.22;100.00;101052.09;10418469;28;20086;-83
2023/03/18 20:33:04;;;;;;;13.02;9.85;;;;;;;8.27;100.00;101075.00;10414790;28;20102;-84
2023/03/18 20:38:20;;;;;;;16.52;11.52;;;;;;;8.07;100.00;101060.75;10431158;28;20033;-84
2023/03/18 20:43:22;;;;;;;18.87;11.40;;;;;;;8.01;100.00;101059.78;10416910;28;20041;-86
2023/03/18 20:48:23;;;;;;;16.05;12.48;;;;;;;7.92;100.00;101068.56;10416660;28;20276;-85
2023/03/18 20:53:24;;;;;;;18.13;12.98;;;;;;;7.71;100.00;101040.59;10416720;28;20063;-85
2023/03/18 20:58:26;;;;;;;17.70;12.60;;;;;;;7.68;100.00;101062.97;10450596;28;20078;-83
2023/03/18 21:03:28;;;;;;;18.75;13.38;;;;;;;7.77;100.00;101089.00;10415837;28;20033;-83
2023/03/18 21:08:29;;;;;;;19.05;14.48;;;;;;;7.72;100.00;101107.19;10415771;28;20037;-84
2023/03/18 21:13:37;;;;;;;20.60;13.85;;;;;;;7.66;100.00;101114.44;10374584;28;20044;-85
2023/03/18 21:18:40;;;;;;;21.05;14.02;;;;;;;7.57;100.00;101104.84;10422458;28;20096;-85
2023/03/18 21:23:40;;;;;;;21.42;15.00;;;;;;;7.38;100.00;101102.13;10389355;28;20046;-84
2023/03/18 21:28:41;;;;;;;24.23;16.00;;;;;;;7.29;100.00;101097.97;10368635;28;20037;-85
2023/03/18 21:33:43;;;;;;;25.58;16.75;;;;;;;7.13;100.00;101082.16;10388117;28;20042;-84
2023/03/18 21:38:44;;;;;;;32.40;18.95;;;;;;;6.74;100.00;101029.47;10375854;28;20125;-84
2023/03/18 21:43:45;;;;;;;36.50;20.58;;;;;;;6.97;100.00;101084.41;10389920;28;20064;-85
2023/03/18 21:48:46;;;;;;;37.05;21.52;;;;;;;6.93;100.00;101083.19;10383276;28;20037;-86
2023/03/18 21:53:46;;;;;;;46.80;25.77;;;;;;;6.91;100.00;101076.28;10394622;28;20129;-84
2023/03/18 21:58:47;;;;;;;50.33;25.05;;;;;;;6.83;100.00;101072.75;10387764;28;20044;-85
2023/03/18 22:03:52;;;;;;;55.70;26.35;;;;;;;6.84;100.00;101090.00;10431608;28;20060;-86
2023/03/18 22:08:52;;;;;;;56.35;27.55;;;;;;;6.77;100.00;101086.50;10412574;28;20044;-85
2023/03/18 22:13:53;;;;;;;54.30;28.67;;;;;;;6.70;100.00;101063.81;10402418;28;20041;-84
2023/03/18 22:18:53;;;;;;;65.88;34.72;;;;;;;6.87;100.00;101067.66;10418889;28;20099;-87
2023/03/18 22:23:54;;;;;;;70.65;35.30;;;;;;;7.03;100.00;101069.81;10442797;28;20057;-86
2023/03/18 22:28:54;;;;;;;80.78;37.63;;;;;;;7.07;100.00;101051.88;10380276;28;20038;-72
2023/03/18 22:33:55;;;;;;;81.03;40.70;;;;;;;7.18;100.00;101049.47;10386726;28;20033;-82
2023/03/18 22:38:55;;;;;;;91.88;43.83;;;;;;;6.87;100.00;101000.06;10364420;28;20033;-87
2023/03/18 22:43:58;;;;;;;96.43;45.50;;;;;;;7.53;100.00;101059.81;10396545;28;20042;-85
2023/03/18 22:49:05;;;;;;;97.32;47.15;;;;;;;7.64;100.00;101059.84;10375379;28;20038;-83
2023/03/18 22:54:06;;;;;;;98.22;45.38;;;;;;;7.66;100.00;101043.19;10422760;28;20037;-85